sensor_id;sensor_type;location;lat;lon;timestamp;P1;durP1;ratioP1;P2;durP2;ratioP2
7645;SDS011;3864;48.180;14.178;2023-02-28T00:00:37;8.02;;;4.75;;
7645;SDS011;3864;48.180;14.178;2023-02-28T00:05:30;5.35;;;3.80;;
7645;SDS011;3864;48.180;14.178;2023-02-28T00:07:57;7.10;;;4.57;;
7645;SDS011;3864;48.180;14.178;2023-02-28T00:10:25;6.40;;;4.32;;
7645;SDS011;3864;48.180;14.178;2023-02-28T00:12:55;8.45;;;4.45;;
7645;SDS011;3864;48.180;14.178;2023-02-28T00:15:23;8.05;;;4.00;;
7645;SDS011;3864;48.180;14.178;2023-02-28T00:17:50;7.53;;;4.85;;
7645;SDS011;3864;48.180;14.178;2023-02-28T00:20:17;10.68;;;5.07;;
7645;SDS011;3864;48.180;14.178;2023-02-28T00:25:12;10.15;;;5.22;;
7645;SDS011;3864;48.180;14.178;2023-02-28T00:27:39;9.23;;;5.15;;
7645;SDS011;3864;48.180;14.178;2023-02-28T00:30:10;10.07;;;5.82;;
7645;SDS011;3864;48.180;14.178;2023-02-28T00:32:37;10.00;;;6.22;;
7645;SDS011;3864;48.180;14.178;2023-02-28T00:35:04;8.63;;;5.40;;
7645;SDS011;3864;48.180;14.178;2023-02-28T00:37:32;11.40;;;5.38;;
7645;SDS011;3864;48.180;14.178;2023-02-28T00:39:59;12.45;;;6.22;;
7645;SDS011;3864;48.180;14.178;2023-02-28T00:42:26;11.70;;;5.75;;
7645;SDS011;3864;48.180;14.178;2023-02-28T00:44:52;10.40;;;5.82;;
7645;SDS011;3864;48.180;14.178;2023-02-28T00:47:21;23.27;;;10.18;;
7645;SDS011;3864;48.180;14.178;2023-02-28T00:49:48;23.60;;;10.52;;
7645;SDS011;3864;48.180;14.178;2023-02-28T00:52:14;17.15;;;7.57;;
7645;SDS011;3864;48.180;14.178;2023-02-28T00:54:41;15.68;;;7.70;;
7645;SDS011;3864;48.180;14.178;2023-02-28T00:57:09;15.80;;;8.85;;
7645;SDS011;3864;48.180;14.178;2023-02-28T00:59:35;11.45;;;6.68;;
7645;SDS011;3864;48.180;14.178;2023-02-28T01:02:02;10.75;;;6.75;;
7645;SDS011;3864;48.180;14.178;2023-02-28T01:04:31;15.07;;;8.07;;
7645;SDS011;3864;48.180;14.178;2023-02-28T01:06:58;11.43;;;6.40;;
7645;SDS011;3864;48.180;14.178;2023-02-28T01:09:25;9.65;;;5.43;;
7645;SDS011;3864;48.180;14.178;2023-02-28T01:11:52;10.80;;;6.05;;
7645;SDS011;3864;48.180;14.178;2023-02-28T01:14:19;10.45;;;5.97;;
7645;SDS011;3864;48.180;14.178;2023-02-28T01:16:46;14.00;;;6.80;;
7645;SDS011;3864;48.180;14.178;2023-02-28T01:19:13;10.50;;;6.28;;
7645;SDS011;3864;48.180;14.178;2023-02-28T01:21:41;11.73;;;6.28;;
7645;SDS011;3864;48.180;14.178;2023-02-28T01:24:08;12.93;;;6.47;;
7645;SDS011;3864;48.180;14.178;2023-02-28T01:26:35;11.48;;;6.80;;
7645;SDS011;3864;48.180;14.178;2023-02-28T01:29:02;11.25;;;6.95;;
7645;SDS011;3864;48.180;14.178;2023-02-28T01:31:29;9.65;;;6.10;;
7645;SDS011;3864;48.180;14.178;2023-02-28T01:33:56;11.05;;;6.35;;
7645;SDS011;3864;48.180;14.178;2023-02-28T01:36:23;12.85;;;6.68;;
7645;SDS011;3864;48.180;14.178;2023-02-28T01:38:52;10.23;;;6.47;;
7645;SDS011;3864;48.180;14.178;2023-02-28T01:41:20;11.60;;;6.45;;
7645;SDS011;3864;48.180;14.178;2023-02-28T01:43:55;11.00;;;6.43;;
7645;SDS011;3864;48.180;14.178;2023-02-28T01:46:22;13.13;;;6.35;;
7645;SDS011;3864;48.180;14.178;2023-02-28T01:48:50;12.32;;;6.07;;
7645;SDS011;3864;48.180;14.178;2023-02-28T01:51:36;11.13;;;6.93;;
7645;SDS011;3864;48.180;14.178;2023-02-28T01:54:07;12.90;;;7.50;;
7645;SDS011;3864;48.180;14.178;2023-02-28T01:56:39;10.45;;;6.43;;
7645;SDS011;3864;48.180;14.178;2023-02-28T01:59:08;12.68;;;6.82;;
7645;SDS011;3864;48.180;14.178;2023-02-28T02:01:35;13.07;;;7.03;;
7645;SDS011;3864;48.180;14.178;2023-02-28T02:04:02;13.13;;;7.35;;
7645;SDS011;3864;48.180;14.178;2023-02-28T02:08:56;13.80;;;7.32;;
7645;SDS011;3864;48.180;14.178;2023-02-28T02:11:25;14.40;;;6.97;;
7645;SDS011;3864;48.180;14.178;2023-02-28T02:14:04;14.88;;;7.15;;
7645;SDS011;3864;48.180;14.178;2023-02-28T02:16:36;12.25;;;6.97;;
7645;SDS011;3864;48.180;14.178;2023-02-28T02:19:09;13.48;;;7.40;;
7645;SDS011;3864;48.180;14.178;2023-02-28T02:21:50;12.98;;;8.00;;
7645;SDS011;3864;48.180;14.178;2023-02-28T02:24:40;14.15;;;7.22;;
7645;SDS011;3864;48.180;14.178;2023-02-28T02:30:23;15.25;;;7.25;;
7645;SDS011;3864;48.180;14.178;2023-02-28T02:35:49;13.77;;;7.88;;
7645;SDS011;3864;48.180;14.178;2023-02-28T02:38:20;13.85;;;7.50;;
7645;SDS011;3864;48.180;14.178;2023-02-28T02:40:53;12.30;;;7.05;;
7645;SDS011;3864;48.180;14.178;2023-02-28T02:43:22;13.27;;;7.80;;
7645;SDS011;3864;48.180;14.178;2023-02-28T02:45:52;11.77;;;6.72;;
7645;SDS011;3864;48.180;14.178;2023-02-28T02:48:22;12.93;;;7.35;;
7645;SDS011;3864;48.180;14.178;2023-02-28T02:50:54;15.07;;;7.80;;
7645;SDS011;3864;48.180;14.178;2023-02-28T02:53:22;14.00;;;8.43;;
7645;SDS011;3864;48.180;14.178;2023-02-28T02:55:50;15.50;;;7.60;;
7645;SDS011;3864;48.180;14.178;2023-02-28T02:58:20;14.30;;;8.45;;
7645;SDS011;3864;48.180;14.178;2023-02-28T03:00:48;15.55;;;7.50;;
7645;SDS011;3864;48.180;14.178;2023-02-28T03:03:18;15.65;;;7.78;;
7645;SDS011;3864;48.180;14.178;2023-02-28T03:05:56;13.02;;;7.60;;
7645;SDS011;3864;48.180;14.178;2023-02-28T03:08:23;12.70;;;7.25;;
7645;SDS011;3864;48.180;14.178;2023-02-28T03:10:50;13.93;;;7.70;;
7645;SDS011;3864;48.180;14.178;2023-02-28T03:16:13;12.68;;;7.35;;
7645;SDS011;3864;48.180;14.178;2023-02-28T03:18:47;17.20;;;7.30;;
7645;SDS011;3864;48.180;14.178;2023-02-28T03:21:19;14.98;;;7.63;;
7645;SDS011;3864;48.180;14.178;2023-02-28T03:23:50;14.82;;;7.25;;
7645;SDS011;3864;48.180;14.178;2023-02-28T03:26:21;14.68;;;8.57;;
7645;SDS011;3864;48.180;14.178;2023-02-28T03:28:51;13.98;;;7.03;;
7645;SDS011;3864;48.180;14.178;2023-02-28T03:31:20;13.63;;;7.90;;
7645;SDS011;3864;48.180;14.178;2023-02-28T03:33:49;14.18;;;7.43;;
7645;SDS011;3864;48.180;14.178;2023-02-28T03:36:21;15.23;;;7.85;;
7645;SDS011;3864;48.180;14.178;2023-02-28T03:38:49;12.00;;;7.25;;
7645;SDS011;3864;48.180;14.178;2023-02-28T03:41:19;14.02;;;7.18;;
7645;SDS011;3864;48.180;14.178;2023-02-28T03:43:48;13.13;;;7.10;;
7645;SDS011;3864;48.180;14.178;2023-02-28T03:46:16;13.75;;;7.63;;
7645;SDS011;3864;48.180;14.178;2023-02-28T03:48:47;15.38;;;7.25;;
7645;SDS011;3864;48.180;14.178;2023-02-28T03:51:16;15.35;;;8.30;;
7645;SDS011;3864;48.180;14.178;2023-02-28T03:53:46;16.48;;;8.38;;
7645;SDS011;3864;48.180;14.178;2023-02-28T03:56:18;13.60;;;7.63;;
7645;SDS011;3864;48.180;14.178;2023-02-28T03:58:47;18.08;;;7.95;;
7645;SDS011;3864;48.180;14.178;2023-02-28T04:01:16;14.40;;;7.05;;
7645;SDS011;3864;48.180;14.178;2023-02-28T04:03:46;14.77;;;7.68;;
7645;SDS011;3864;48.180;14.178;2023-02-28T04:06:13;12.48;;;7.03;;
7645;SDS011;3864;48.180;14.178;2023-02-28T04:08:41;12.15;;;7.10;;
7645;SDS011;3864;48.180;14.178;2023-02-28T04:13:37;14.05;;;6.88;;
7645;SDS011;3864;48.180;14.178;2023-02-28T04:16:06;12.13;;;6.72;;
7645;SDS011;3864;48.180;14.178;2023-02-28T04:18:36;25.73;;;11.20;;
7645;SDS011;3864;48.180;14.178;2023-02-28T04:21:03;18.52;;;9.45;;
7645;SDS011;3864;48.180;14.178;2023-02-28T04:23:30;22.10;;;10.70;;
7645;SDS011;3864;48.180;14.178;2023-02-28T04:25:57;24.52;;;11.20;;
7645;SDS011;3864;48.180;14.178;2023-02-28T04:28:24;26.80;;;12.63;;
7645;SDS011;3864;48.180;14.178;2023-02-28T04:30:55;22.48;;;10.00;;
7645;SDS011;3864;48.180;14.178;2023-02-28T04:33:22;14.02;;;8.20;;
7645;SDS011;3864;48.180;14.178;2023-02-28T04:35:57;14.95;;;7.95;;
7645;SDS011;3864;48.180;14.178;2023-02-28T04:38:24;13.90;;;7.55;;
7645;SDS011;3864;48.180;14.178;2023-02-28T04:40:51;13.88;;;7.15;;
7645;SDS011;3864;48.180;14.178;2023-02-28T04:43:17;17.00;;;8.02;;
7645;SDS011;3864;48.180;14.178;2023-02-28T04:45:44;18.45;;;10.05;;
7645;SDS011;3864;48.180;14.178;2023-02-28T04:48:13;15.38;;;8.80;;
7645;SDS011;3864;48.180;14.178;2023-02-28T04:50:40;13.60;;;6.68;;
7645;SDS011;3864;48.180;14.178;2023-02-28T04:53:06;14.55;;;7.32;;
7645;SDS011;3864;48.180;14.178;2023-02-28T04:55:33;12.45;;;6.78;;
7645;SDS011;3864;48.180;14.178;2023-02-28T04:58:00;15.32;;;6.90;;
7645;SDS011;3864;48.180;14.178;2023-02-28T05:00:27;12.57;;;7.43;;
7645;SDS011;3864;48.180;14.178;2023-02-28T05:03:01;12.57;;;7.13;;
7645;SDS011;3864;48.180;14.178;2023-02-28T05:05:42;14.35;;;7.10;;
7645;SDS011;3864;48.180;14.178;2023-02-28T05:08:09;11.25;;;6.70;;
7645;SDS011;3864;48.180;14.178;2023-02-28T05:10:36;14.40;;;7.00;;
7645;SDS011;3864;48.180;14.178;2023-02-28T05:13:03;13.40;;;7.78;;
7645;SDS011;3864;48.180;14.178;2023-02-28T05:15:30;13.50;;;6.90;;
7645;SDS011;3864;48.180;14.178;2023-02-28T05:17:57;15.63;;;7.32;;
7645;SDS011;3864;48.180;14.178;2023-02-28T05:20:24;11.55;;;6.85;;
7645;SDS011;3864;48.180;14.178;2023-02-28T05:22:52;19.67;;;8.50;;
7645;SDS011;3864;48.180;14.178;2023-02-28T05:25:19;13.65;;;6.57;;
7645;SDS011;3864;48.180;14.178;2023-02-28T05:27:47;13.38;;;7.38;;
7645;SDS011;3864;48.180;14.178;2023-02-28T05:30:14;13.65;;;7.53;;
7645;SDS011;3864;48.180;14.178;2023-02-28T05:32:41;17.20;;;7.55;;
7645;SDS011;3864;48.180;14.178;2023-02-28T05:35:09;17.13;;;7.20;;
7645;SDS011;3864;48.180;14.178;2023-02-28T05:37:37;12.85;;;6.70;;
7645;SDS011;3864;48.180;14.178;2023-02-28T05:40:07;13.20;;;7.15;;
7645;SDS011;3864;48.180;14.178;2023-02-28T05:42:35;18.13;;;8.38;;
7645;SDS011;3864;48.180;14.178;2023-02-28T05:45:02;14.45;;;7.88;;
7645;SDS011;3864;48.180;14.178;2023-02-28T05:47:29;17.27;;;7.18;;
7645;SDS011;3864;48.180;14.178;2023-02-28T05:49:56;17.63;;;8.63;;
7645;SDS011;3864;48.180;14.178;2023-02-28T05:52:22;12.65;;;7.60;;
7645;SDS011;3864;48.180;14.178;2023-02-28T05:54:49;14.55;;;7.53;;
7645;SDS011;3864;48.180;14.178;2023-02-28T05:57:18;14.95;;;7.95;;
7645;SDS011;3864;48.180;14.178;2023-02-28T05:59:45;15.57;;;6.57;;
7645;SDS011;3864;48.180;14.178;2023-02-28T06:02:12;15.65;;;7.68;;
7645;SDS011;3864;48.180;14.178;2023-02-28T06:04:39;14.15;;;8.27;;
7645;SDS011;3864;48.180;14.178;2023-02-28T06:07:06;15.23;;;7.50;;
7645;SDS011;3864;48.180;14.178;2023-02-28T06:09:33;15.15;;;7.70;;
7645;SDS011;3864;48.180;14.178;2023-02-28T06:14:47;13.20;;;6.97;;
7645;SDS011;3864;48.180;14.178;2023-02-28T06:17:14;19.55;;;8.80;;
7645;SDS011;3864;48.180;14.178;2023-02-28T06:19:41;16.95;;;8.20;;
7645;SDS011;3864;48.180;14.178;2023-02-28T06:22:08;16.02;;;8.48;;
7645;SDS011;3864;48.180;14.178;2023-02-28T06:24:34;13.57;;;6.95;;
7645;SDS011;3864;48.180;14.178;2023-02-28T06:27:01;18.40;;;8.88;;
7645;SDS011;3864;48.180;14.178;2023-02-28T06:29:30;15.10;;;7.07;;
7645;SDS011;3864;48.180;14.178;2023-02-28T06:31:58;18.35;;;7.65;;
7645;SDS011;3864;48.180;14.178;2023-02-28T06:34:25;15.52;;;7.47;;
7645;SDS011;3864;48.180;14.178;2023-02-28T06:36:52;15.35;;;8.75;;
7645;SDS011;3864;48.180;14.178;2023-02-28T06:39:19;14.57;;;7.70;;
7645;SDS011;3864;48.180;14.178;2023-02-28T06:41:46;16.83;;;9.25;;
7645;SDS011;3864;48.180;14.178;2023-02-28T06:44:14;13.85;;;8.65;;
7645;SDS011;3864;48.180;14.178;2023-02-28T06:46:41;11.98;;;7.22;;
7645;SDS011;3864;48.180;14.178;2023-02-28T06:49:19;15.48;;;7.07;;
7645;SDS011;3864;48.180;14.178;2023-02-28T06:52:00;13.13;;;7.95;;
7645;SDS011;3864;48.180;14.178;2023-02-28T06:54:27;12.63;;;7.78;;
7645;SDS011;3864;48.180;14.178;2023-02-28T06:57:13;13.02;;;7.05;;
7645;SDS011;3864;48.180;14.178;2023-02-28T06:59:53;16.38;;;7.45;;
7645;SDS011;3864;48.180;14.178;2023-02-28T07:02:20;15.13;;;7.35;;
7645;SDS011;3864;48.180;14.178;2023-02-28T07:04:48;14.65;;;7.25;;
7645;SDS011;3864;48.180;14.178;2023-02-28T07:07:15;16.48;;;7.57;;
7645;SDS011;3864;48.180;14.178;2023-02-28T07:09:42;13.00;;;6.88;;
7645;SDS011;3864;48.180;14.178;2023-02-28T07:12:09;16.58;;;7.43;;
7645;SDS011;3864;48.180;14.178;2023-02-28T07:14:36;15.20;;;8.55;;
7645;SDS011;3864;48.180;14.178;2023-02-28T07:19:29;16.25;;;7.13;;
7645;SDS011;3864;48.180;14.178;2023-02-28T07:21:58;18.35;;;8.25;;
7645;SDS011;3864;48.180;14.178;2023-02-28T07:24:24;15.27;;;7.93;;
7645;SDS011;3864;48.180;14.178;2023-02-28T07:26:53;12.02;;;7.22;;
7645;SDS011;3864;48.180;14.178;2023-02-28T07:29:20;13.27;;;7.38;;
7645;SDS011;3864;48.180;14.178;2023-02-28T07:31:47;15.07;;;7.50;;
7645;SDS011;3864;48.180;14.178;2023-02-28T07:34:15;15.82;;;7.85;;
7645;SDS011;3864;48.180;14.178;2023-02-28T07:36:42;13.18;;;7.65;;
7645;SDS011;3864;48.180;14.178;2023-02-28T07:39:10;13.30;;;6.72;;
7645;SDS011;3864;48.180;14.178;2023-02-28T07:41:37;12.70;;;6.80;;
7645;SDS011;3864;48.180;14.178;2023-02-28T07:44:08;13.98;;;7.85;;
7645;SDS011;3864;48.180;14.178;2023-02-28T07:46:35;14.35;;;7.75;;
7645;SDS011;3864;48.180;14.178;2023-02-28T07:49:02;14.35;;;8.30;;
7645;SDS011;3864;48.180;14.178;2023-02-28T07:51:29;15.48;;;8.75;;
7645;SDS011;3864;48.180;14.178;2023-02-28T07:53:57;14.55;;;7.95;;
7645;SDS011;3864;48.180;14.178;2023-02-28T07:56:26;13.25;;;7.72;;
7645;SDS011;3864;48.180;14.178;2023-02-28T07:58:53;13.38;;;8.00;;
7645;SDS011;3864;48.180;14.178;2023-02-28T08:01:20;15.82;;;7.95;;
7645;SDS011;3864;48.180;14.178;2023-02-28T08:03:46;13.95;;;7.22;;
7645;SDS011;3864;48.180;14.178;2023-02-28T08:06:17;15.15;;;8.18;;
7645;SDS011;3864;48.180;14.178;2023-02-28T08:08:44;14.43;;;7.88;;
7645;SDS011;3864;48.180;14.178;2023-02-28T08:11:11;14.95;;;8.10;;
7645;SDS011;3864;48.180;14.178;2023-02-28T08:13:40;15.85;;;8.40;;
7645;SDS011;3864;48.180;14.178;2023-02-28T08:16:09;16.90;;;8.40;;
7645;SDS011;3864;48.180;14.178;2023-02-28T08:18:36;15.02;;;8.35;;
7645;SDS011;3864;48.180;14.178;2023-02-28T08:21:05;16.70;;;7.72;;
7645;SDS011;3864;48.180;14.178;2023-02-28T08:23:32;12.95;;;7.63;;
7645;SDS011;3864;48.180;14.178;2023-02-28T08:25:59;14.40;;;9.02;;
7645;SDS011;3864;48.180;14.178;2023-02-28T08:28:26;16.33;;;7.90;;
7645;SDS011;3864;48.180;14.178;2023-02-28T08:30:54;17.00;;;8.18;;
7645;SDS011;3864;48.180;14.178;2023-02-28T08:33:21;12.95;;;7.78;;
7645;SDS011;3864;48.180;14.178;2023-02-28T08:35:48;13.32;;;7.22;;
7645;SDS011;3864;48.180;14.178;2023-02-28T08:38:15;13.68;;;7.60;;
7645;SDS011;3864;48.180;14.178;2023-02-28T08:40:41;17.05;;;8.35;;
7645;SDS011;3864;48.180;14.178;2023-02-28T08:43:08;15.57;;;8.20;;
7645;SDS011;3864;48.180;14.178;2023-02-28T08:45:35;14.15;;;8.10;;
7645;SDS011;3864;48.180;14.178;2023-02-28T08:50:30;15.02;;;7.15;;
7645;SDS011;3864;48.180;14.178;2023-02-28T08:52:57;14.25;;;7.15;;
7645;SDS011;3864;48.180;14.178;2023-02-28T08:57:51;14.23;;;7.68;;
7645;SDS011;3864;48.180;14.178;2023-02-28T09:00:20;15.00;;;7.85;;
7645;SDS011;3864;48.180;14.178;2023-02-28T09:02:47;16.08;;;8.05;;
7645;SDS011;3864;48.180;14.178;2023-02-28T09:05:14;16.02;;;9.05;;
7645;SDS011;3864;48.180;14.178;2023-02-28T09:07:42;13.60;;;7.88;;
7645;SDS011;3864;48.180;14.178;2023-02-28T09:10:09;16.45;;;8.25;;
7645;SDS011;3864;48.180;14.178;2023-02-28T09:12:37;15.35;;;8.98;;
7645;SDS011;3864;48.180;14.178;2023-02-28T09:15:04;16.90;;;8.75;;
7645;SDS011;3864;48.180;14.178;2023-02-28T09:17:31;13.90;;;7.95;;
7645;SDS011;3864;48.180;14.178;2023-02-28T09:19:58;13.07;;;8.05;;
7645;SDS011;3864;48.180;14.178;2023-02-28T09:22:25;15.70;;;7.28;;
7645;SDS011;3864;48.180;14.178;2023-02-28T09:24:53;15.40;;;7.70;;
7645;SDS011;3864;48.180;14.178;2023-02-28T09:27:20;15.50;;;7.93;;
7645;SDS011;3864;48.180;14.178;2023-02-28T09:29:47;12.23;;;7.75;;
7645;SDS011;3864;48.180;14.178;2023-02-28T09:32:14;12.82;;;7.25;;
7645;SDS011;3864;48.180;14.178;2023-02-28T09:34:42;12.68;;;7.65;;
7645;SDS011;3864;48.180;14.178;2023-02-28T09:37:09;13.15;;;8.27;;
7645;SDS011;3864;48.180;14.178;2023-02-28T09:39:36;14.55;;;8.27;;
7645;SDS011;3864;48.180;14.178;2023-02-28T09:42:04;16.77;;;8.32;;
7645;SDS011;3864;48.180;14.178;2023-02-28T09:44:35;13.52;;;7.57;;
7645;SDS011;3864;48.180;14.178;2023-02-28T09:47:05;13.30;;;7.50;;
7645;SDS011;3864;48.180;14.178;2023-02-28T09:49:37;15.20;;;8.15;;
7645;SDS011;3864;48.180;14.178;2023-02-28T09:52:07;15.57;;;8.32;;
7645;SDS011;3864;48.180;14.178;2023-02-28T09:54:35;15.02;;;8.23;;
7645;SDS011;3864;48.180;14.178;2023-02-28T09:57:07;13.27;;;8.02;;
7645;SDS011;3864;48.180;14.178;2023-02-28T09:59:43;13.77;;;7.70;;
7645;SDS011;3864;48.180;14.178;2023-02-28T10:02:18;12.15;;;8.20;;
7645;SDS011;3864;48.180;14.178;2023-02-28T10:04:49;16.20;;;8.10;;
7645;SDS011;3864;48.180;14.178;2023-02-28T10:07:21;11.88;;;7.57;;
7645;SDS011;3864;48.180;14.178;2023-02-28T10:09:51;12.15;;;7.30;;
7645;SDS011;3864;48.180;14.178;2023-02-28T10:12:20;13.27;;;7.75;;
7645;SDS011;3864;48.180;14.178;2023-02-28T10:14:49;12.93;;;7.68;;
7645;SDS011;3864;48.180;14.178;2023-02-28T10:17:17;12.80;;;7.40;;
7645;SDS011;3864;48.180;14.178;2023-02-28T10:19:47;11.85;;;8.30;;
7645;SDS011;3864;48.180;14.178;2023-02-28T10:22:21;13.18;;;8.43;;
7645;SDS011;3864;48.180;14.178;2023-02-28T10:24:49;12.38;;;7.53;;
7645;SDS011;3864;48.180;14.178;2023-02-28T10:27:18;13.43;;;8.07;;
7645;SDS011;3864;48.180;14.178;2023-02-28T10:29:47;10.63;;;7.72;;
7645;SDS011;3864;48.180;14.178;2023-02-28T10:32:15;13.00;;;7.40;;
7645;SDS011;3864;48.180;14.178;2023-02-28T10:34:43;11.77;;;7.65;;
7645;SDS011;3864;48.180;14.178;2023-02-28T10:37:10;10.48;;;6.80;;
7645;SDS011;3864;48.180;14.178;2023-02-28T10:39:41;13.95;;;7.78;;
7645;SDS011;3864;48.180;14.178;2023-02-28T10:42:19;12.27;;;8.07;;
7645;SDS011;3864;48.180;14.178;2023-02-28T10:44:48;13.40;;;8.75;;
7645;SDS011;3864;48.180;14.178;2023-02-28T10:47:15;14.95;;;8.07;;
7645;SDS011;3864;48.180;14.178;2023-02-28T10:49:46;12.55;;;8.07;;
7645;SDS011;3864;48.180;14.178;2023-02-28T10:52:13;20.50;;;8.73;;
7645;SDS011;3864;48.180;14.178;2023-02-28T10:54:40;12.43;;;7.72;;
7645;SDS011;3864;48.180;14.178;2023-02-28T10:57:17;12.23;;;7.57;;
7645;SDS011;3864;48.180;14.178;2023-02-28T10:59:45;12.23;;;8.05;;
7645;SDS011;3864;48.180;14.178;2023-02-28T11:02:33;14.68;;;8.13;;
7645;SDS011;3864;48.180;14.178;2023-02-28T11:05:01;10.23;;;6.75;;
7645;SDS011;3864;48.180;14.178;2023-02-28T11:07:28;12.80;;;7.65;;
7645;SDS011;3864;48.180;14.178;2023-02-28T11:09:55;12.63;;;7.63;;
7645;SDS011;3864;48.180;14.178;2023-02-28T11:12:23;11.98;;;7.28;;
7645;SDS011;3864;48.180;14.178;2023-02-28T11:14:52;12.10;;;7.65;;
7645;SDS011;3864;48.180;14.178;2023-02-28T11:17:20;11.65;;;7.47;;
7645;SDS011;3864;48.180;14.178;2023-02-28T11:19:50;12.48;;;7.60;;
7645;SDS011;3864;48.180;14.178;2023-02-28T11:22:18;12.55;;;7.72;;
7645;SDS011;3864;48.180;14.178;2023-02-28T11:24:46;11.27;;;7.80;;
7645;SDS011;3864;48.180;14.178;2023-02-28T11:27:40;10.70;;;7.28;;
7645;SDS011;3864;48.180;14.178;2023-02-28T11:30:22;11.82;;;7.25;;
7645;SDS011;3864;48.180;14.178;2023-02-28T11:32:49;11.55;;;8.10;;
7645;SDS011;3864;48.180;14.178;2023-02-28T11:35:21;12.45;;;8.25;;
7645;SDS011;3864;48.180;14.178;2023-02-28T11:37:50;12.13;;;8.02;;
7645;SDS011;3864;48.180;14.178;2023-02-28T11:40:18;12.88;;;7.72;;
7645;SDS011;3864;48.180;14.178;2023-02-28T11:42:50;12.60;;;7.65;;
7645;SDS011;3864;48.180;14.178;2023-02-28T11:47:48;11.45;;;7.15;;
7645;SDS011;3864;48.180;14.178;2023-02-28T11:53:10;11.68;;;7.93;;
7645;SDS011;3864;48.180;14.178;2023-02-28T11:55:37;10.27;;;7.90;;
7645;SDS011;3864;48.180;14.178;2023-02-28T11:58:09;14.10;;;8.02;;
7645;SDS011;3864;48.180;14.178;2023-02-28T12:00:50;12.98;;;7.45;;
7645;SDS011;3864;48.180;14.178;2023-02-28T12:03:23;12.68;;;8.98;;
7645;SDS011;3864;48.180;14.178;2023-02-28T12:05:54;12.23;;;7.38;;
7645;SDS011;3864;48.180;14.178;2023-02-28T12:08:30;12.45;;;8.07;;
7645;SDS011;3864;48.180;14.178;2023-02-28T12:11:06;11.90;;;7.95;;
7645;SDS011;3864;48.180;14.178;2023-02-28T12:13:39;10.48;;;7.63;;
7645;SDS011;3864;48.180;14.178;2023-02-28T12:19:01;11.40;;;7.30;;
7645;SDS011;3864;48.180;14.178;2023-02-28T12:21:31;10.95;;;7.82;;
7645;SDS011;3864;48.180;14.178;2023-02-28T12:24:06;12.85;;;7.85;;
7645;SDS011;3864;48.180;14.178;2023-02-28T12:26:36;13.27;;;7.75;;
7645;SDS011;3864;48.180;14.178;2023-02-28T12:29:07;11.60;;;7.53;;
7645;SDS011;3864;48.180;14.178;2023-02-28T12:31:38;12.20;;;8.70;;
7645;SDS011;3864;48.180;14.178;2023-02-28T12:34:06;12.90;;;7.32;;
7645;SDS011;3864;48.180;14.178;2023-02-28T12:36:34;10.23;;;7.68;;
7645;SDS011;3864;48.180;14.178;2023-02-28T12:39:02;12.63;;;8.35;;
7645;SDS011;3864;48.180;14.178;2023-02-28T12:41:33;11.98;;;7.55;;
7645;SDS011;3864;48.180;14.178;2023-02-28T12:44:02;11.88;;;8.05;;
7645;SDS011;3864;48.180;14.178;2023-02-28T12:46:31;12.45;;;8.10;;
7645;SDS011;3864;48.180;14.178;2023-02-28T12:49:00;12.48;;;8.15;;
7645;SDS011;3864;48.180;14.178;2023-02-28T12:51:28;11.38;;;7.15;;
7645;SDS011;3864;48.180;14.178;2023-02-28T12:53:58;11.00;;;7.85;;
7645;SDS011;3864;48.180;14.178;2023-02-28T12:56:30;11.75;;;7.55;;
7645;SDS011;3864;48.180;14.178;2023-02-28T12:59:03;12.07;;;7.72;;
7645;SDS011;3864;48.180;14.178;2023-02-28T13:01:37;14.40;;;8.30;;
7645;SDS011;3864;48.180;14.178;2023-02-28T13:04:16;11.45;;;7.63;;
7645;SDS011;3864;48.180;14.178;2023-02-28T13:09:33;11.98;;;7.72;;
7645;SDS011;3864;48.180;14.178;2023-02-28T13:12:00;12.52;;;7.95;;
7645;SDS011;3864;48.180;14.178;2023-02-28T13:14:30;11.43;;;7.65;;
7645;SDS011;3864;48.180;14.178;2023-02-28T13:17:03;12.00;;;7.07;;
7645;SDS011;3864;48.180;14.178;2023-02-28T13:19:36;12.77;;;8.15;;
7645;SDS011;3864;48.180;14.178;2023-02-28T13:22:03;14.35;;;8.93;;
7645;SDS011;3864;48.180;14.178;2023-02-28T13:27:23;12.40;;;7.43;;
7645;SDS011;3864;48.180;14.178;2023-02-28T13:29:52;12.02;;;7.32;;
7645;SDS011;3864;48.180;14.178;2023-02-28T13:32:27;12.35;;;8.18;;
7645;SDS011;3864;48.180;14.178;2023-02-28T13:38:03;11.50;;;7.20;;
7645;SDS011;3864;48.180;14.178;2023-02-28T13:40:35;13.55;;;8.57;;
7645;SDS011;3864;48.180;14.178;2023-02-28T13:43:05;11.90;;;7.97;;
7645;SDS011;3864;48.180;14.178;2023-02-28T13:45:35;14.10;;;8.77;;
7645;SDS011;3864;48.180;14.178;2023-02-28T13:48:04;13.02;;;8.40;;
7645;SDS011;3864;48.180;14.178;2023-02-28T13:50:34;13.10;;;7.97;;
7645;SDS011;3864;48.180;14.178;2023-02-28T13:55:49;12.00;;;8.05;;
7645;SDS011;3864;48.180;14.178;2023-02-28T13:58:23;11.90;;;8.23;;
7645;SDS011;3864;48.180;14.178;2023-02-28T14:03:46;14.52;;;9.00;;
7645;SDS011;3864;48.180;14.178;2023-02-28T14:06:17;12.48;;;8.43;;
7645;SDS011;3864;48.180;14.178;2023-02-28T14:08:47;12.50;;;8.40;;
7645;SDS011;3864;48.180;14.178;2023-02-28T14:11:24;13.48;;;8.27;;
7645;SDS011;3864;48.180;14.178;2023-02-28T14:13:52;13.27;;;8.57;;
7645;SDS011;3864;48.180;14.178;2023-02-28T14:16:20;12.43;;;8.52;;
7645;SDS011;3864;48.180;14.178;2023-02-28T14:18:50;13.02;;;8.77;;
7645;SDS011;3864;48.180;14.178;2023-02-28T14:21:21;10.93;;;7.97;;
7645;SDS011;3864;48.180;14.178;2023-02-28T14:24:16;13.88;;;8.02;;
7645;SDS011;3864;48.180;14.178;2023-02-28T14:27:04;14.85;;;8.60;;
7645;SDS011;3864;48.180;14.178;2023-02-28T14:29:41;13.68;;;8.68;;
7645;SDS011;3864;48.180;14.178;2023-02-28T14:32:11;13.80;;;9.00;;
7645;SDS011;3864;48.180;14.178;2023-02-28T14:34:43;12.48;;;8.88;;
7645;SDS011;3864;48.180;14.178;2023-02-28T14:37:13;11.10;;;7.88;;
7645;SDS011;3864;48.180;14.178;2023-02-28T14:39:41;11.95;;;8.13;;
7645;SDS011;3864;48.180;14.178;2023-02-28T14:44:53;12.63;;;9.20;;
7645;SDS011;3864;48.180;14.178;2023-02-28T14:47:27;14.68;;;9.13;;
7645;SDS011;3864;48.180;14.178;2023-02-28T14:49:56;12.73;;;8.73;;
7645;SDS011;3864;48.180;14.178;2023-02-28T14:52:23;14.73;;;10.13;;
7645;SDS011;3864;48.180;14.178;2023-02-28T14:54:52;11.32;;;8.10;;
7645;SDS011;3864;48.180;14.178;2023-02-28T14:57:21;13.98;;;8.63;;
7645;SDS011;3864;48.180;14.178;2023-02-28T14:59:56;12.63;;;8.77;;
7645;SDS011;3864;48.180;14.178;2023-02-28T15:02:23;12.98;;;8.20;;
7645;SDS011;3864;48.180;14.178;2023-02-28T15:04:52;14.98;;;9.70;;
7645;SDS011;3864;48.180;14.178;2023-02-28T15:07:21;12.73;;;8.30;;
7645;SDS011;3864;48.180;14.178;2023-02-28T15:12:40;12.40;;;8.38;;
7645;SDS011;3864;48.180;14.178;2023-02-28T15:15:14;12.80;;;8.77;;
7645;SDS011;3864;48.180;14.178;2023-02-28T15:17:41;14.15;;;8.93;;
7645;SDS011;3864;48.180;14.178;2023-02-28T15:20:10;13.52;;;9.32;;
7645;SDS011;3864;48.180;14.178;2023-02-28T15:22:39;14.50;;;8.95;;
7645;SDS011;3864;48.180;14.178;2023-02-28T15:25:06;13.75;;;9.30;;
7645;SDS011;3864;48.180;14.178;2023-02-28T15:27:33;13.70;;;9.38;;
7645;SDS011;3864;48.180;14.178;2023-02-28T15:30:05;13.35;;;9.13;;
7645;SDS011;3864;48.180;14.178;2023-02-28T15:32:33;14.77;;;9.75;;
7645;SDS011;3864;48.180;14.178;2023-02-28T15:37:47;15.20;;;9.20;;
7645;SDS011;3864;48.180;14.178;2023-02-28T15:40:15;15.80;;;10.70;;
7645;SDS011;3864;48.180;14.178;2023-02-28T15:42:42;14.38;;;9.25;;
7645;SDS011;3864;48.180;14.178;2023-02-28T15:45:27;16.67;;;10.32;;
7645;SDS011;3864;48.180;14.178;2023-02-28T15:47:54;16.65;;;9.93;;
7645;SDS011;3864;48.180;14.178;2023-02-28T15:50:21;15.88;;;10.18;;
7645;SDS011;3864;48.180;14.178;2023-02-28T15:52:51;15.65;;;9.82;;
7645;SDS011;3864;48.180;14.178;2023-02-28T15:55:19;16.52;;;10.55;;
7645;SDS011;3864;48.180;14.178;2023-02-28T15:57:47;18.40;;;10.90;;
7645;SDS011;3864;48.180;14.178;2023-02-28T16:00:15;17.83;;;11.32;;